Airfield :
LOGIN :

Register | Disclaimer

   EN    FR    IT 

 










Legend :    VFR   Marginal VFR   IFR   Intensive IFR   Very Intensive IFR
Visi :
Ceiling :
>= 8 km
>= 3000ft
5 to 8 km
1000 to 3000 ft
1500m to 5 km
500 to 1000 ft
800 to 1500m
200 to 500 ft
< 800m
< 200 ft
Symbols :   Thunderstorms  Fog  Heavy snow  Heavy precipitations  Wind > 20 kt
SIGMETs :     Misc.  Thunderstorms  Icing  Turbulence  Mountain Waves  Volcanic Ashes







- Airport Elevation : 102 ft
- IATA code : CNG
- Download approach charts


LFBG - Cognac

CURRENT METAR :
  • 141500Z AUTO 28013KT CAVOK 26/13 Q1021 NOSIG

EXPIRED METARs :
  • 141430Z AUTO 31010KT 290V350 9999 FEW049 BKN060 25/13 Q1021 NOSIG
  • 141400Z AUTO 30008KT 230V350 CAVOK 26/12 Q1020 NOSIG
  • 141330Z AUTO 31006KT 250V010 9999 SCT048 BKN064 BKN240 26/13 Q1021 NOSIG
  • 141300Z AUTO 35006KT 280V060 9999 FEW044 SCT060 26/13 Q1021 NOSIG
  • 141230Z AUTO 32008KT 290V030 9999 FEW041 SCT047 25/13 Q1021 NOSIG

TAF TAF LFBG
Valid from the 14 at 15:00 until the 15 at 15:00 UTC


141400Z 1415/1515 29008KT CAVOK
TEMPO 1504/1507 3000 BR
No reported NOTAMs for that airfield.



MET'MAP, your aeronautical weather chart ! - Copyright ORBIFLY December 2007 - Disclaimer

ORBIFLY MET'MAP TEAM :

Programming & Development : Alexandra Zaïnal
Concept & Development : Baudouin d'Aumeries
Co-Development & Prog : Marc-Olivier Méhu
Technical & hardware support : Manuel Goepfert

Contact : metmap@orbifly.com




SOURCES & CREDITS :

   NOAA